Time;durP1;ratioP1;P1;durP2;ratioP2;P2;SDS_P1;SDS_P2;PMS_P1;PMS_P2;Temp;Humidity;BMP_temperature;BMP_pressure;BME280_temperature;BME280_humidity;BME280_pressure;Samples;Min_cycle;Max_cycle;Signal;HPM_P1;HPM_P2
2021/03/02 00:01:06;;;;;;;25.60;14.68;;;3.90;83.60;;;;;;5083956;28;20031;-66
2021/03/02 00:03:35;;;;;;;26.33;13.75;;;3.80;83.70;;;;;;5093334;28;20489;-67
2021/03/02 00:06:01;;;;;;;24.70;13.95;;;3.80;83.70;;;;;;5093543;28;20013;-66
2021/03/02 00:08:30;;;;;;;22.45;13.07;;;3.80;84.00;;;;;;5093192;28;20030;-67
2021/03/02 00:10:59;;;;;;;22.23;13.07;;;3.80;84.10;;;;;;5067294;28;20028;-69
2021/03/02 00:13:25;;;;;;;22.60;13.77;;;3.80;84.20;;;;;;5054239;28;20025;-67
2021/03/02 00:15:51;;;;;;;22.33;13.68;;;3.90;84.00;;;;;;5079649;28;20020;-66
2021/03/02 00:18:24;;;;;;;22.27;13.45;;;3.90;84.00;;;;;;5093390;28;20023;-66
2021/03/02 00:20:57;;;;;;;22.50;14.13;;;3.90;83.90;;;;;;5092899;28;20474;-66
2021/03/02 00:23:29;;;;;;;24.92;13.13;;;3.90;83.90;;;;;;5074922;28;20035;-66
2021/03/02 00:25:57;;;;;;;23.63;13.93;;;3.90;83.90;;;;;;5073853;28;20462;-66
2021/03/02 00:28:26;;;;;;;22.40;13.70;;;3.90;83.90;;;;;;5080746;28;20158;-66
2021/03/02 00:30:52;;;;;;;22.90;13.15;;;3.90;84.10;;;;;;5092944;28;20107;-66
2021/03/02 00:33:20;;;;;;;20.13;12.05;;;3.90;83.90;;;;;;5074738;28;20144;-66
2021/03/02 00:35:46;;;;;;;19.88;12.60;;;3.80;83.80;;;;;;5062482;28;20371;-66
2021/03/02 00:38:12;;;;;;;20.08;11.50;;;3.80;84.10;;;;;;5073555;28;20027;-66
2021/03/02 00:40:38;;;;;;;21.25;11.93;;;3.90;84.20;;;;;;5093201;28;20516;-66
2021/03/02 00:43:04;;;;;;;19.60;11.48;;;3.80;84.00;;;;;;5092668;28;20051;-66
2021/03/02 00:45:29;;;;;;;20.08;11.85;;;3.80;84.10;;;;;;5066546;28;20466;-66
2021/03/02 00:47:56;;;;;;;20.30;12.07;;;3.80;84.00;;;;;;5087020;28;20031;-67
2021/03/02 00:50:26;;;;;;;20.98;12.32;;;3.80;84.00;;;;;;5092834;28;20016;-66
2021/03/02 00:52:52;;;;;;;19.92;11.32;;;3.90;84.00;;;;;;5093072;28;20186;-66
2021/03/02 00:55:18;;;;;;;19.98;11.77;;;3.80;83.60;;;;;;5092568;28;20028;-65
2021/03/02 00:57:44;;;;;;;19.15;11.32;;;3.80;83.70;;;;;;5093122;28;20035;-66
2021/03/02 01:00:10;;;;;;;19.58;12.38;;;3.80;83.80;;;;;;5074599;28;20031;-66
2021/03/02 01:02:37;;;;;;;17.13;10.90;;;3.80;83.90;;;;;;5074840;28;20031;-67
2021/03/02 01:05:05;;;;;;;18.92;11.32;;;3.80;84.00;;;;;;5092483;28;20058;-65
2021/03/02 01:07:31;;;;;;;18.63;11.98;;;3.80;84.10;;;;;;5074717;28;20020;-66
2021/03/02 01:09:57;;;;;;;17.40;10.18;;;3.80;84.20;;;;;;5074734;28;20033;-65
2021/03/02 01:12:26;;;;;;;17.80;11.00;;;3.90;84.10;;;;;;5054365;28;20090;-66
2021/03/02 01:14:53;;;;;;;18.65;11.25;;;3.90;83.90;;;;;;5072491;28;20111;-66
2021/03/02 01:17:19;;;;;;;23.02;14.35;;;3.90;83.80;;;;;;5073055;28;20028;-67
2021/03/02 01:19:45;;;;;;;25.65;18.83;;;3.80;83.80;;;;;;5074549;28;20027;-66
2021/03/02 01:22:11;;;;;;;28.65;21.00;;;3.90;83.70;;;;;;5062211;28;20025;-66
2021/03/02 01:24:37;;;;;;;20.17;13.77;;;3.80;83.60;;;;;;5068485;28;20028;-66
2021/03/02 01:27:03;;;;;;;22.15;13.13;;;3.80;83.60;;;;;;5075826;28;20370;-65
2021/03/02 01:29:29;;;;;;;16.90;10.27;;;3.90;83.80;;;;;;5057859;28;20031;-66
2021/03/02 01:31:54;;;;;;;18.08;9.85;;;3.90;83.60;;;;;;5058030;28;20020;-66
2021/03/02 01:34:20;;;;;;;16.63;10.35;;;3.90;83.30;;;;;;5090482;28;20476;-66
2021/03/02 01:36:46;;;;;;;20.88;12.98;;;3.80;83.40;;;;;;5083210;28;20020;-66
2021/03/02 01:39:11;;;;;;;26.50;15.63;;;3.80;83.40;;;;;;5077955;28;20020;-66
2021/03/02 01:41:37;;;;;;;26.98;14.80;;;3.80;83.20;;;;;;5077904;28;20367;-66
2021/03/02 01:44:04;;;;;;;25.15;14.68;;;3.80;83.30;;;;;;5078080;28;20024;-66
2021/03/02 01:46:29;;;;;;;26.85;14.57;;;3.80;83.20;;;;;;5077437;28;20028;-66
2021/03/02 01:48:56;;;;;;;26.17;14.73;;;3.80;83.30;;;;;;5069447;28;20082;-71
2021/03/02 01:51:22;;;;;;;23.77;15.50;;;3.80;83.40;;;;;;5090191;28;20056;-66
2021/03/02 01:53:47;;;;;;;22.00;14.40;;;3.80;83.40;;;;;;5096254;28;20086;-66
2021/03/02 01:56:13;;;;;;;23.13;13.25;;;3.70;83.40;;;;;;5077677;28;20058;-66
2021/03/02 01:58:39;;;;;;;22.90;13.13;;;3.70;83.50;;;;;;5095655;28;20142;-66
2021/03/02 02:01:08;;;;;;;19.30;11.70;;;3.70;83.60;;;;;;5095520;28;20469;-66
2021/03/02 02:03:54;;;;;;;21.98;12.02;;;3.80;83.50;;;;;;5095791;28;20085;-66
2021/03/02 02:06:30;;;;;;;20.58;12.30;;;3.70;83.40;;;;;;5077066;28;20474;-66
2021/03/02 02:09:11;;;;;;;22.45;12.80;;;3.70;83.40;;;;;;5072283;28;20417;-66
2021/03/02 02:11:43;;;;;;;21.65;12.98;;;3.60;83.50;;;;;;5075117;28;20035;-67
2021/03/02 02:14:29;;;;;;;22.58;12.90;;;3.60;83.60;;;;;;5075105;28;20035;-67
2021/03/02 02:16:58;;;;;;;21.95;12.60;;;3.50;83.80;;;;;;5074603;28;20376;-67
2021/03/02 02:19:39;;;;;;;24.38;14.63;;;3.50;83.80;;;;;;5075392;28;20421;-67
2021/03/02 02:22:12;;;;;;;27.05;14.88;;;3.50;83.90;;;;;;5060858;28;20036;-66
2021/03/02 02:25:04;;;;;;;26.17;13.95;;;3.50;84.10;;;;;;5057225;28;20028;-67
2021/03/02 02:27:32;;;;;;;25.52;13.95;;;3.50;84.40;;;;;;5056778;28;20039;-67
2021/03/02 02:30:00;;;;;;;20.70;12.98;;;3.50;84.40;;;;;;5052474;28;20051;-67
2021/03/02 02:32:28;;;;;;;21.75;12.23;;;3.50;84.40;;;;;;5057204;28;20024;-67
2021/03/02 02:34:57;;;;;;;20.83;12.07;;;3.50;84.40;;;;;;5057056;28;20060;-70
2021/03/02 02:37:25;;;;;;;20.92;10.85;;;3.40;84.40;;;;;;5073995;28;20025;-68
2021/03/02 02:39:52;;;;;;;18.55;10.57;;;3.40;84.50;;;;;;5057157;28;20532;-67
2021/03/02 02:42:19;;;;;;;16.92;10.00;;;3.50;84.40;;;;;;5074534;28;20039;-67
2021/03/02 02:44:47;;;;;;;15.95;9.23;;;3.40;84.40;;;;;;5075122;28;20032;-67
2021/03/02 02:47:13;;;;;;;14.98;8.70;;;3.40;84.60;;;;;;5074253;28;20067;-67
2021/03/02 02:49:39;;;;;;;16.02;8.52;;;3.50;84.70;;;;;;5075247;28;20060;-67
2021/03/02 02:52:06;;;;;;;13.23;9.13;;;3.40;84.60;;;;;;5073152;28;20048;-68
2021/03/02 02:54:32;;;;;;;19.70;11.63;;;3.50;84.60;;;;;;5056620;28;20404;-67
2021/03/02 02:56:58;;;;;;;20.88;12.88;;;3.50;84.60;;;;;;5056134;28;20040;-62
2021/03/02 02:59:34;;;;;;;19.92;12.93;;;3.50;84.50;;;;;;5072775;28;20100;-67
2021/03/02 03:02:03;;;;;;;22.35;13.55;;;3.50;84.60;;;;;;5056651;28;20041;-67
2021/03/02 03:04:42;;;;;;;17.95;11.02;;;3.50;84.30;;;;;;5056437;28;20063;-66
2021/03/02 03:07:29;;;;;;;14.57;10.27;;;3.50;84.10;;;;;;5074060;28;20028;-66
2021/03/02 03:09:56;;;;;;;13.55;8.10;;;3.50;84.30;;;;;;5074668;28;20012;-67
2021/03/02 03:12:25;;;;;;;13.10;8.60;;;3.50;84.40;;;;;;5056749;28;20040;-67
2021/03/02 03:14:57;;;;;;;11.30;7.50;;;3.50;84.30;;;;;;5039545;28;20025;-67
2021/03/02 03:17:31;;;;;;;14.45;8.35;;;3.50;84.30;;;;;;5067465;28;20024;-66
2021/03/02 03:19:58;;;;;;;14.02;9.07;;;3.50;84.10;;;;;;5056094;28;20490;-66
2021/03/02 03:22:24;;;;;;;14.63;8.45;;;3.50;84.20;;;;;;5074010;28;20040;-66
2021/03/02 03:24:50;;;;;;;13.63;8.70;;;3.50;84.20;;;;;;5073919;28;20016;-66
2021/03/02 03:27:17;;;;;;;13.95;7.97;;;3.40;84.00;;;;;;5056004;28;20044;-66
2021/03/02 03:29:45;;;;;;;15.43;7.40;;;3.40;84.20;;;;;;5055894;28;20487;-67
2021/03/02 03:32:13;;;;;;;13.73;7.18;;;3.40;84.10;;;;;;5055946;28;20039;-67
2021/03/02 03:34:41;;;;;;;11.38;6.90;;;3.40;84.10;;;;;;5073566;28;20037;-67
2021/03/02 03:37:07;;;;;;;10.77;7.20;;;3.40;84.10;;;;;;5073274;28;20056;-67
2021/03/02 03:39:33;;;;;;;11.63;7.53;;;3.40;84.00;;;;;;5073901;28;20489;-67
2021/03/02 03:41:59;;;;;;;11.52;6.95;;;3.40;84.10;;;;;;5081649;28;20024;-67
2021/03/02 03:44:25;;;;;;;11.50;7.13;;;3.40;83.90;;;;;;5055963;28;20116;-67
2021/03/02 03:46:51;;;;;;;13.68;8.60;;;3.40;84.10;;;;;;5055563;28;20118;-67
2021/03/02 03:49:17;;;;;;;12.88;8.35;;;3.40;84.00;;;;;;5073131;28;20021;-67
2021/03/02 03:51:43;;;;;;;13.82;9.07;;;3.40;84.10;;;;;;5072996;28;20063;-67
2021/03/02 03:54:11;;;;;;;14.63;9.07;;;3.50;84.30;;;;;;5073633;28;20048;-67
2021/03/02 03:56:38;;;;;;;10.80;6.80;;;3.50;84.20;;;;;;5073445;28;20031;-66
2021/03/02 03:59:05;;;;;;;11.77;6.88;;;3.50;84.00;;;;;;5072888;28;20036;-67
2021/03/02 04:01:32;;;;;;;11.73;7.15;;;3.50;84.20;;;;;;5055343;28;20039;-66
2021/03/02 04:03:58;;;;;;;10.98;6.35;;;3.50;83.80;;;;;;5073034;28;20025;-66
2021/03/02 04:06:24;;;;;;;9.57;6.18;;;3.50;83.60;;;;;;5064104;28;20142;-65
2021/03/02 04:08:50;;;;;;;9.10;6.60;;;3.50;83.70;;;;;;5053546;28;20477;-64
2021/03/02 04:11:17;;;;;;;9.73;6.30;;;3.50;83.60;;;;;;5051896;28;20059;-64
2021/03/02 04:13:42;;;;;;;9.88;6.60;;;3.40;83.50;;;;;;5037169;28;20024;-72
2021/03/02 04:16:08;;;;;;;10.00;6.63;;;3.40;83.50;;;;;;5057729;28;20425;-71
2021/03/02 04:18:34;;;;;;;10.98;6.65;;;3.40;83.40;;;;;;5048017;28;20036;-70
2021/03/02 04:21:01;;;;;;;10.80;6.95;;;3.30;83.40;;;;;;5055394;28;20028;-74
2021/03/02 04:23:27;;;;;;;9.85;6.80;;;3.30;83.40;;;;;;5055311;28;20175;-71
2021/03/02 04:25:52;;;;;;;11.32;6.93;;;3.20;83.30;;;;;;5054386;28;20100;-71
2021/03/02 04:28:18;;;;;;;12.40;6.57;;;3.20;83.50;;;;;;5056623;28;20378;-71
2021/03/02 04:30:44;;;;;;;11.93;7.38;;;3.10;83.40;;;;;;5035933;28;20025;-71
2021/03/02 04:33:10;;;;;;;12.68;6.85;;;3.00;83.40;;;;;;5051458;28;20028;-72
2021/03/02 04:35:36;;;;;;;12.57;7.00;;;3.00;83.40;;;;;;5050876;28;20029;-71
2021/03/02 04:38:02;;;;;;;11.95;6.72;;;2.90;83.50;;;;;;5035095;28;20029;-73
2021/03/02 04:40:28;;;;;;;10.93;7.10;;;2.90;83.80;;;;;;5048069;28;20051;-71
2021/03/02 04:42:54;;;;;;;11.98;7.35;;;2.80;83.90;;;;;;5051870;28;20024;-71
2021/03/02 04:45:20;;;;;;;13.93;7.07;;;2.70;84.10;;;;;;5057395;28;20386;-72
2021/03/02 04:47:46;;;;;;;11.50;7.00;;;2.70;84.30;;;;;;5052942;28;20112;-71
2021/03/02 04:50:14;;;;;;;12.52;7.10;;;2.70;84.60;;;;;;5054213;28;20024;-71
2021/03/02 04:52:40;;;;;;;15.25;8.30;;;2.70;84.80;;;;;;5049367;28;20107;-71
2021/03/02 04:55:07;;;;;;;13.68;9.07;;;2.70;85.10;;;;;;5035343;28;21429;-71
2021/03/02 04:57:33;;;;;;;14.70;9.20;;;2.70;85.40;;;;;;5051019;28;20045;-71
2021/03/02 04:59:58;;;;;;;20.73;11.80;;;2.80;85.50;;;;;;5051147;28;20091;-72
2021/03/02 05:02:24;;;;;;;17.50;11.10;;;2.90;85.70;;;;;;5039751;28;20036;-73
2021/03/02 05:04:50;;;;;;;17.65;11.35;;;2.90;85.80;;;;;;5058673;28;20032;-73
2021/03/02 05:07:16;;;;;;;18.27;11.25;;;3.00;86.30;;;;;;5059154;28;20103;-72
2021/03/02 05:09:41;;;;;;;16.55;9.93;;;3.20;87.10;;;;;;5054346;28;20036;-75
2021/03/02 05:12:07;;;;;;;17.08;10.75;;;3.40;87.30;;;;;;5053556;28;20040;-68
2021/03/02 05:14:33;;;;;;;16.67;9.75;;;3.60;87.20;;;;;;5056281;28;20112;-68
2021/03/02 05:16:59;;;;;;;14.05;9.00;;;3.90;88.00;;;;;;5040003;28;20107;-68
2021/03/02 05:19:25;;;;;;;12.90;8.30;;;4.40;89.00;;;;;;5041099;28;20029;-69
2021/03/02 05:21:50;;;;;;;16.50;9.75;;;4.90;89.30;;;;;;5062921;28;20025;-72
2021/03/02 05:24:16;;;;;;;19.30;10.63;;;5.40;88.60;;;;;;5058702;28;20032;-70
2021/03/02 05:26:42;;;;;;;14.32;8.80;;;5.90;87.10;;;;;;5062366;28;20021;-69
2021/03/02 05:29:08;;;;;;;12.52;7.75;;;6.30;86.50;;;;;;5055407;28;20029;-69
2021/03/02 05:31:33;;;;;;;10.80;7.18;;;6.90;85.60;;;;;;5044304;28;20055;-70
2021/03/02 05:33:59;;;;;;;12.48;7.10;;;7.30;82.90;;;;;;5039474;28;20067;-69
2021/03/02 05:36:25;;;;;;;10.18;6.43;;;7.60;80.70;;;;;;5059626;28;20115;-68
2021/03/02 05:38:51;;;;;;;10.25;6.65;;;7.80;79.60;;;;;;5061925;28;20383;-69
2021/03/02 05:41:18;;;;;;;9.73;6.45;;;8.10;78.60;;;;;;5058009;28;20028;-69
2021/03/02 05:43:44;;;;;;;10.20;6.53;;;8.50;78.20;;;;;;5042765;28;20029;-69
2021/03/02 05:46:11;;;;;;;10.93;6.85;;;8.80;76.40;;;;;;5050351;28;20119;-70
2021/03/02 05:48:41;;;;;;;11.02;6.70;;;9.10;75.20;;;;;;5058069;28;20352;-71
2021/03/02 05:51:08;;;;;;;9.35;6.55;;;9.50;73.80;;;;;;5043404;28;20060;-69
2021/03/02 05:53:37;;;;;;;11.27;6.60;;;9.90;72.60;;;;;;5054135;28;20029;-70
2021/03/02 05:56:06;;;;;;;10.68;6.05;;;10.20;70.80;;;;;;5051724;28;20032;-69
2021/03/02 05:58:32;;;;;;;11.95;7.55;;;10.40;69.70;;;;;;5049065;28;20301;-71
2021/03/02 06:00:58;;;;;;;11.38;7.20;;;10.70;68.90;;;;;;5060969;28;20033;-72
2021/03/02 06:03:25;;;;;;;10.57;7.28;;;11.00;68.30;;;;;;5044160;28;20068;-69
2021/03/02 06:05:51;;;;;;;11.25;7.18;;;11.10;66.40;;;;;;5060366;28;20112;-69
2021/03/02 06:08:17;;;;;;;12.15;7.05;;;11.10;64.50;;;;;;5052153;28;20093;-69
2021/03/02 06:10:43;;;;;;;11.70;6.63;;;11.00;64.50;;;;;;5055314;28;20021;-69
2021/03/02 06:13:09;;;;;;;11.05;6.38;;;11.10;63.70;;;;;;5052712;28;20396;-72
2021/03/02 06:15:34;;;;;;;10.73;6.93;;;11.20;63.50;;;;;;5039716;28;20434;-72
2021/03/02 06:18:13;;;;;;;14.10;8.85;;;11.20;62.20;;;;;;5055249;28;20017;-68
2021/03/02 06:20:41;;;;;;;13.98;9.77;;;11.00;61.20;;;;;;5051576;28;20025;-67
2021/03/02 06:23:27;;;;;;;12.68;8.25;;;10.90;62.00;;;;;;5053705;28;20025;-66
2021/03/02 06:25:55;;;;;;;14.05;8.48;;;11.10;62.50;;;;;;5060437;28;20040;-72
2021/03/02 06:28:34;;;;;;;16.30;9.20;;;11.50;61.50;;;;;;5046568;28;20378;-71
2021/03/02 06:31:00;;;;;;;16.02;8.35;;;11.60;60.30;;;;;;5039407;28;20521;-78
2021/03/02 06:33:25;;;;;;;13.70;8.32;;;11.60;59.80;;;;;;5054725;28;20098;-77
2021/03/02 06:35:51;;;;;;;11.07;7.72;;;11.70;59.70;;;;;;5048383;28;20459;-81
2021/03/02 06:38:28;;;;;;;11.52;6.32;;;11.80;59.90;;;;;;5053430;28;20056;-75
2021/03/02 06:40:53;;;;;;;8.82;5.40;;;12.10;59.60;;;;;;5052680;28;20104;-76
2021/03/02 06:43:32;;;;;;;7.97;5.35;;;12.30;59.50;;;;;;5040544;28;20115;-76
2021/03/02 06:46:00;;;;;;;7.47;4.88;;;12.30;58.60;;;;;;5059189;28;20072;-76
2021/03/02 06:48:26;;;;;;;7.82;5.43;;;12.30;58.00;;;;;;5072364;28;20386;-77
2021/03/02 06:50:52;;;;;;;7.95;5.05;;;12.10;57.90;;;;;;5076393;28;20036;-76
2021/03/02 06:53:19;;;;;;;9.65;5.45;;;12.00;57.80;;;;;;5074375;28;20056;-81
2021/03/02 06:55:44;;;;;;;8.93;6.15;;;11.90;57.50;;;;;;5059929;28;20035;-75
2021/03/02 06:58:25;;;;;;;9.77;5.90;;;11.80;57.10;;;;;;5059983;28;20025;-76
2021/03/02 07:00:54;;;;;;;9.13;5.93;;;11.50;56.70;;;;;;5068029;28;20153;-75
2021/03/02 07:03:31;;;;;;;10.65;6.35;;;11.20;56.90;;;;;;5085679;28;20385;-76
2021/03/02 07:06:07;;;;;;;11.77;7.30;;;10.80;57.20;;;;;;5064999;28;20527;-75
2021/03/02 07:08:34;;;;;;;12.10;7.40;;;10.50;57.90;;;;;;5067779;28;20017;-73
2021/03/02 07:11:01;;;;;;;11.48;7.57;;;10.10;58.60;;;;;;5068595;28;20425;-74
2021/03/02 07:13:31;;;;;;;9.77;6.72;;;9.50;58.20;;;;;;5067457;28;20032;-74
2021/03/02 07:15:58;;;;;;;10.27;6.90;;;9.00;59.10;;;;;;5060169;28;20401;-75
2021/03/02 07:18:28;;;;;;;10.07;6.18;;;8.70;59.60;;;;;;5074073;28;20078;-73
2021/03/02 07:21:00;;;;;;;10.52;6.82;;;8.20;60.50;;;;;;5074131;28;20135;-73
2021/03/02 07:23:28;;;;;;;11.93;6.78;;;7.90;61.40;;;;;;5055746;28;20044;-73
2021/03/02 07:25:56;;;;;;;11.70;7.18;;;7.70;61.90;;;;;;5074032;28;20479;-74
2021/03/02 07:28:25;;;;;;;10.23;7.07;;;7.40;62.40;;;;;;5056087;28;20086;-74
2021/03/02 07:30:52;;;;;;;12.45;7.30;;;7.20;63.20;;;;;;5074145;28;20025;-73
2021/03/02 07:33:18;;;;;;;10.77;7.53;;;7.10;63.90;;;;;;5055631;28;20058;-74
2021/03/02 07:35:46;;;;;;;12.45;7.05;;;7.00;64.30;;;;;;5055868;28;20070;-74
2021/03/02 07:38:20;;;;;;;10.57;7.22;;;6.90;64.80;;;;;;5073587;28;20122;-74
2021/03/02 07:40:54;;;;;;;14.55;8.30;;;7.00;65.50;;;;;;5073781;28;20031;-74
2021/03/02 07:43:24;;;;;;;10.75;7.47;;;7.00;65.70;;;;;;5055281;28;20123;-75
2021/03/02 07:45:50;;;;;;;10.45;6.88;;;7.00;65.90;;;;;;5073570;28;20387;-76
2021/03/02 07:48:35;;;;;;;13.45;8.05;;;7.00;65.80;;;;;;5073693;28;20020;-76
2021/03/02 07:51:22;;;;;;;12.05;7.93;;;7.00;66.00;;;;;;5054726;28;20024;-75
2021/03/02 07:53:50;;;;;;;11.07;8.00;;;7.00;66.40;;;;;;5055575;28;20119;-74
2021/03/02 07:56:21;;;;;;;13.05;7.47;;;6.90;66.30;;;;;;5055544;28;20025;-75
2021/03/02 07:59:04;;;;;;;15.95;8.23;;;6.90;66.60;;;;;;5073634;28;20413;-75
2021/03/02 08:01:31;;;;;;;11.73;7.30;;;6.90;66.90;;;;;;5055255;28;20032;-75
2021/03/02 08:04:15;;;;;;;13.98;9.15;;;7.00;66.70;;;;;;5055296;28;20021;-74
2021/03/02 08:06:43;;;;;;;11.80;7.20;;;6.80;66.60;;;;;;5055286;28;20024;-74
2021/03/02 08:09:21;;;;;;;13.20;8.13;;;6.70;67.00;;;;;;5088455;28;20034;-75
2021/03/02 08:11:47;;;;;;;13.02;8.73;;;6.60;67.10;;;;;;5073401;28;20041;-75
2021/03/02 08:14:16;;;;;;;12.90;8.75;;;6.50;67.40;;;;;;5054941;28;20111;-75
2021/03/02 08:17:07;;;;;;;15.63;9.80;;;6.50;67.60;;;;;;5073135;28;20016;-75
2021/03/02 08:19:41;;;;;;;14.85;8.93;;;6.40;67.80;;;;;;5055488;28;20032;-75
2021/03/02 08:22:23;;;;;;;14.05;9.40;;;6.30;67.80;;;;;;5073219;28;20037;-74
2021/03/02 08:24:59;;;;;;;17.35;9.93;;;6.20;68.20;;;;;;5055353;28;20386;-74
2021/03/02 08:27:45;;;;;;;16.73;9.48;;;6.10;68.60;;;;;;5055499;28;20032;-74
2021/03/02 08:30:18;;;;;;;20.83;11.50;;;6.10;69.00;;;;;;5067648;28;20028;-74
2021/03/02 08:32:44;;;;;;;16.45;10.85;;;6.10;69.20;;;;;;5047712;28;20037;-75
2021/03/02 08:35:12;;;;;;;17.05;10.40;;;6.10;69.30;;;;;;5071691;28;20092;-74
2021/03/02 08:37:52;;;;;;;14.20;9.57;;;6.10;69.20;;;;;;5055112;28;20101;-74
2021/03/02 08:40:40;;;;;;;16.45;9.93;;;6.00;69.40;;;;;;5055013;28;20028;-74
2021/03/02 08:43:12;;;;;;;15.52;8.88;;;5.90;69.80;;;;;;5072597;28;20025;-75
2021/03/02 08:45:39;;;;;;;15.23;9.15;;;5.90;69.90;;;;;;5039106;28;20133;-74
2021/03/02 08:48:26;;;;;;;14.77;9.45;;;5.90;70.10;;;;;;5065843;28;20387;-73
2021/03/02 08:51:04;;;;;;;16.27;10.00;;;5.90;70.50;;;;;;5039686;28;20025;-74
2021/03/02 08:53:37;;;;;;;17.05;10.70;;;5.90;70.60;;;;;;5050232;28;20045;-74
2021/03/02 08:56:05;;;;;;;18.35;10.48;;;5.90;70.80;;;;;;5054695;28;20119;-74
2021/03/02 08:58:38;;;;;;;17.20;9.70;;;5.90;71.00;;;;;;5072945;28;20027;-75
2021/03/02 09:01:06;;;;;;;16.73;9.25;;;5.90;71.00;;;;;;5072547;28;20040;-75
2021/03/02 09:03:32;;;;;;;14.70;9.18;;;5.80;70.80;;;;;;5072481;28;20028;-76
2021/03/02 09:06:24;;;;;;;14.18;9.07;;;5.80;70.70;;;;;;5054752;28;20028;-75
2021/03/02 09:09:03;;;;;;;13.82;9.00;;;5.60;71.20;;;;;;5045596;28;20033;-74
2021/03/02 09:11:30;;;;;;;14.75;8.70;;;5.60;71.30;;;;;;5072584;28;20029;-74
2021/03/02 09:14:04;;;;;;;15.02;8.98;;;5.50;71.70;;;;;;5054939;28;20059;-74
2021/03/02 09:16:31;;;;;;;13.93;8.75;;;5.60;72.00;;;;;;5072434;28;20033;-75
2021/03/02 09:19:04;;;;;;;12.98;8.45;;;5.60;72.40;;;;;;5054749;28;20048;-75
2021/03/02 09:21:30;;;;;;;16.05;8.95;;;5.70;72.10;;;;;;5054979;28;20082;-74
2021/03/02 09:23:58;;;;;;;14.77;9.05;;;5.70;72.10;;;;;;5072738;28;20367;-73
2021/03/02 09:26:26;;;;;;;14.07;8.70;;;5.70;72.10;;;;;;5054503;28;20082;-75
2021/03/02 09:28:56;;;;;;;17.08;10.07;;;5.60;72.10;;;;;;5054608;28;20384;-75
2021/03/02 09:31:26;;;;;;;14.98;9.45;;;5.60;72.00;;;;;;5054413;28;20016;-75
2021/03/02 09:33:53;;;;;;;16.55;10.30;;;5.50;72.00;;;;;;5072835;28;20111;-75
2021/03/02 09:36:22;;;;;;;16.40;9.50;;;5.40;72.30;;;;;;5054383;28;20033;-79
2021/03/02 09:38:48;;;;;;;18.17;10.77;;;5.40;72.70;;;;;;5072765;28;20020;-75
2021/03/02 09:41:38;;;;;;;19.33;10.65;;;5.40;73.10;;;;;;5054135;28;20070;-75
2021/03/02 09:44:22;;;;;;;18.08;10.35;;;5.40;73.20;;;;;;5043280;28;20028;-75
2021/03/02 09:46:49;;;;;;;19.00;11.77;;;5.50;73.20;;;;;;5056242;28;20036;-75
2021/03/02 09:49:34;;;;;;;21.50;12.27;;;5.60;73.10;;;;;;5075840;28;20462;-74
2021/03/02 09:51:59;;;;;;;19.83;11.75;;;5.70;73.10;;;;;;5057392;28;20044;-75
2021/03/02 09:54:25;;;;;;;19.40;11.57;;;5.70;73.00;;;;;;5076321;28;20478;-75
2021/03/02 09:57:03;;;;;;;17.75;10.48;;;5.70;72.80;;;;;;5057758;28;20024;-74
2021/03/02 09:59:30;;;;;;;20.73;11.23;;;5.70;72.60;;;;;;5057794;28;20382;-74
2021/03/02 10:01:56;;;;;;;18.63;11.02;;;5.70;72.70;;;;;;5057363;28;20032;-74
2021/03/02 10:04:23;;;;;;;19.88;11.27;;;5.60;72.70;;;;;;5075903;28;20378;-75
2021/03/02 10:06:49;;;;;;;17.45;10.68;;;5.50;72.90;;;;;;5057767;28;20028;-74
2021/03/02 10:09:24;;;;;;;22.33;11.02;;;5.50;73.30;;;;;;5057361;28;20539;-73
2021/03/02 10:12:09;;;;;;;21.92;12.00;;;5.50;73.10;;;;;;5057455;28;20032;-74
2021/03/02 10:14:39;;;;;;;20.10;11.05;;;5.50;73.10;;;;;;5062752;28;20042;-74
2021/03/02 10:17:05;;;;;;;22.33;13.73;;;5.40;73.40;;;;;;5075316;28;20470;-75
2021/03/02 10:19:31;;;;;;;23.48;13.13;;;5.50;73.80;;;;;;5057320;28;20029;-75
2021/03/02 10:21:59;;;;;;;26.50;14.73;;;5.60;73.70;;;;;;5057660;28;20532;-74
2021/03/02 10:24:39;;;;;;;37.75;20.98;;;5.60;73.60;;;;;;5075501;28;20020;-76
2021/03/02 10:27:17;;;;;;;25.25;15.07;;;5.60;73.40;;;;;;5057104;28;20382;-74
2021/03/02 10:29:44;;;;;;;23.85;12.25;;;5.60;73.60;;;;;;5057471;28;20432;-74
2021/03/02 10:32:11;;;;;;;25.08;12.75;;;5.50;73.30;;;;;;5090812;28;20039;-74
2021/03/02 10:34:37;;;;;;;28.35;15.50;;;5.50;73.40;;;;;;5057135;28;20056;-80
2021/03/02 10:37:05;;;;;;;32.70;18.73;;;5.50;73.70;;;;;;5056908;28;20028;-74
2021/03/02 10:39:32;;;;;;;29.63;16.58;;;5.50;73.70;;;;;;5075021;28;20078;-74
2021/03/02 10:41:58;;;;;;;26.63;14.55;;;5.50;73.80;;;;;;5056855;28;20024;-74
2021/03/02 10:44:24;;;;;;;26.58;13.98;;;5.40;73.50;;;;;;5075470;28;20059;-73
2021/03/02 10:46:50;;;;;;;23.42;12.80;;;5.40;73.70;;;;;;5056859;28;20024;-74
2021/03/02 10:49:16;;;;;;;26.35;14.40;;;5.40;73.90;;;;;;5056746;28;20020;-74
2021/03/02 10:51:42;;;;;;;24.75;13.38;;;5.40;73.60;;;;;;5056379;28;20052;-74
2021/03/02 10:54:09;;;;;;;26.42;13.18;;;5.40;73.50;;;;;;5056782;28;20033;-74
2021/03/02 10:56:37;;;;;;;26.77;13.57;;;5.40;73.60;;;;;;5073296;28;20364;-73
2021/03/02 10:59:07;;;;;;;28.45;14.07;;;5.30;73.60;;;;;;5055552;28;20017;-73
2021/03/02 11:01:33;;;;;;;29.92;14.30;;;5.20;73.50;;;;;;5056692;28;20060;-73
2021/03/02 11:03:59;;;;;;;30.25;15.50;;;5.10;73.60;;;;;;5056466;28;20036;-74
2021/03/02 11:06:25;;;;;;;33.90;15.05;;;5.00;73.80;;;;;;5056573;28;20119;-74
2021/03/02 11:08:55;;;;;;;36.90;15.02;;;4.90;73.90;;;;;;5056074;28;20028;-74
2021/03/02 11:11:22;;;;;;;34.70;15.35;;;4.80;74.60;;;;;;5056747;28;20035;-74
2021/03/02 11:13:50;;;;;;;33.20;15.95;;;4.80;75.00;;;;;;5056481;28;20036;-74
2021/03/02 11:16:17;;;;;;;33.20;16.10;;;4.90;75.10;;;;;;5056221;28;20025;-74
2021/03/02 11:18:46;;;;;;;36.47;16.27;;;4.90;75.30;;;;;;5056387;28;20024;-74
2021/03/02 11:21:12;;;;;;;39.10;16.73;;;4.90;75.20;;;;;;5073957;28;20077;-74
2021/03/02 11:23:42;;;;;;;35.92;16.05;;;4.80;75.20;;;;;;5072677;28;20027;-73
2021/03/02 11:26:08;;;;;;;35.40;14.60;;;4.80;75.20;;;;;;5074002;28;20032;-74
2021/03/02 11:28:35;;;;;;;32.83;15.55;;;4.90;75.50;;;;;;5056142;28;20024;-73
2021/03/02 11:31:01;;;;;;;34.67;15.55;;;4.90;75.40;;;;;;5056077;28;20032;-74
2021/03/02 11:33:27;;;;;;;37.42;16.05;;;4.90;75.10;;;;;;5055766;28;20106;-73
2021/03/02 11:35:53;;;;;;;33.70;15.88;;;4.80;75.70;;;;;;5073956;28;20057;-74
2021/03/02 11:38:19;;;;;;;37.17;15.90;;;4.80;75.50;;;;;;5073728;28;20427;-74
2021/03/02 11:40:45;;;;;;;37.67;16.63;;;4.80;75.60;;;;;;5074047;28;20051;-73
2021/03/02 11:43:11;;;;;;;36.83;14.88;;;4.70;75.80;;;;;;5055557;28;20029;-74
2021/03/02 11:45:37;;;;;;;34.13;14.85;;;4.80;76.00;;;;;;5073700;28;20541;-73
2021/03/02 11:48:04;;;;;;;42.05;17.88;;;4.90;76.00;;;;;;5073559;28;20030;-75
2021/03/02 11:50:33;;;;;;;37.90;15.82;;;4.80;75.70;;;;;;5055141;28;20025;-75
2021/03/02 11:52:58;;;;;;;34.70;16.13;;;4.90;76.30;;;;;;5055036;28;20086;-75
2021/03/02 11:55:24;;;;;;;34.83;15.93;;;4.90;76.10;;;;;;5073523;28;20048;-73
2021/03/02 11:57:50;;;;;;;33.63;15.13;;;5.00;76.30;;;;;;5073746;28;20021;-74
2021/03/02 12:00:19;;;;;;;35.58;16.38;;;5.10;76.00;;;;;;5055565;28;20025;-75
2021/03/02 12:02:45;;;;;;;37.90;17.23;;;5.10;75.70;;;;;;5055284;28;20024;-74
2021/03/02 12:05:12;;;;;;;36.88;15.45;;;5.10;75.50;;;;;;5055170;28;20024;-74
2021/03/02 12:07:40;;;;;;;40.38;17.13;;;5.10;75.50;;;;;;5073388;28;20028;-74
2021/03/02 12:10:09;;;;;;;37.78;18.08;;;5.10;75.20;;;;;;5055228;28;20600;-73
2021/03/02 12:12:35;;;;;;;35.17;15.60;;;5.10;75.40;;;;;;5073036;28;20103;-74
2021/03/02 12:15:04;;;;;;;38.35;17.08;;;5.00;75.40;;;;;;5055467;28;20082;-74
2021/03/02 12:17:30;;;;;;;38.97;16.88;;;5.00;75.70;;;;;;5055040;28;20564;-74
2021/03/02 12:19:55;;;;;;;38.78;18.15;;;5.00;75.70;;;;;;5072966;28;20024;-74
2021/03/02 12:22:21;;;;;;;36.42;15.90;;;5.10;75.80;;;;;;5055340;28;20028;-74
2021/03/02 12:24:47;;;;;;;33.92;15.32;;;5.10;75.70;;;;;;5072911;28;20020;-74
2021/03/02 12:27:13;;;;;;;39.08;16.13;;;5.10;75.60;;;;;;5072847;28;20036;-75
2021/03/02 12:29:39;;;;;;;35.88;16.00;;;5.10;75.50;;;;;;5054697;28;20086;-74
2021/03/02 12:32:05;;;;;;;36.63;16.75;;;5.10;75.60;;;;;;5073156;28;20037;-74
2021/03/02 12:34:31;;;;;;;37.25;16.15;;;5.20;75.80;;;;;;5054791;28;20024;-75
2021/03/02 12:36:57;;;;;;;36.10;15.65;;;5.30;75.80;;;;;;5054809;28;20532;-74
2021/03/02 12:39:23;;;;;;;35.53;15.68;;;5.30;75.50;;;;;;5073544;28;20104;-74
2021/03/02 12:41:49;;;;;;;35.28;16.33;;;5.30;75.40;;;;;;5051585;28;20106;-75
2021/03/02 12:44:14;;;;;;;35.40;16.13;;;5.30;75.20;;;;;;5044368;28;20115;-74
2021/03/02 12:46:40;;;;;;;35.83;15.65;;;5.30;75.60;;;;;;5054767;28;20020;-74
2021/03/02 12:49:06;;;;;;;40.05;17.00;;;5.30;75.50;;;;;;5054369;28;20021;-74